Time;durP1;ratioP1;P1;durP2;ratioP2;P2;SDS_P1;SDS_P2;PMS_P1;PMS_P2;Temp;Humidity;BMP_temperature;BMP_pressure;BME280_temperature;BME280_humidity;BME280_pressure;Samples;Min_cycle;Max_cycle;Signal;HPM_P1;HPM_P2
2022/11/24 06:01:21;;;;;;;10.50;1.58;;;6.20;99.90;;;;;;5947356;23;20023;-77
2022/11/24 06:03:46;;;;;;;5.55;1.35;;;6.30;99.90;;;;;;4930530;29;20071;-75
2022/11/24 06:06:12;;;;;;;6.55;1.52;;;6.20;99.90;;;;;;4961241;29;20205;-75
2022/11/24 06:08:38;;;;;;;6.43;1.45;;;6.50;99.90;;;;;;4945918;29;20364;-76
2022/11/24 06:11:17;;;;;;;5.47;1.65;;;6.60;99.90;;;;;;4932267;29;20123;-76
2022/11/24 06:13:44;;;;;;;8.75;2.25;;;6.60;99.90;;;;;;4927143;29;20091;-75
2022/11/24 06:16:12;;;;;;;10.85;1.65;;;6.80;99.90;;;;;;4927463;29;20103;-78
2022/11/24 06:18:38;;;;;;;10.50;2.13;;;6.90;99.90;;;;;;4933412;29;20038;-74
2022/11/24 06:21:05;;;;;;;8.27;1.50;;;7.00;99.90;;;;;;4946508;29;20317;-77
2022/11/24 06:23:31;;;;;;;10.60;1.70;;;7.10;99.90;;;;;;4944502;29;20101;-77
2022/11/24 06:25:58;;;;;;;21.05;10.88;;;7.20;99.90;;;;;;4946708;29;20035;-75
2022/11/24 06:28:24;;;;;;;10.20;2.17;;;7.20;99.90;;;;;;4946726;29;20291;-75
2022/11/24 06:30:50;;;;;;;7.47;1.52;;;7.30;99.90;;;;;;4946225;29;20176;-77
2022/11/24 06:33:16;;;;;;;6.57;1.55;;;7.30;99.90;;;;;;4946463;29;20031;-75
2022/11/24 06:35:42;;;;;;;10.23;1.65;;;7.30;99.90;;;;;;4945909;29;20043;-76
2022/11/24 06:38:08;;;;;;;10.00;1.70;;;7.40;99.90;;;;;;4946743;29;20032;-75
2022/11/24 06:40:34;;;;;;;6.47;1.67;;;7.40;99.90;;;;;;4945820;29;20222;-77
2022/11/24 06:43:00;;;;;;;6.22;1.50;;;7.40;99.90;;;;;;4946267;29;20038;-75
2022/11/24 06:45:26;;;;;;;24.23;11.07;;;7.40;99.90;;;;;;4945673;29;20272;-75
2022/11/24 06:47:55;;;;;;;28.70;12.02;;;7.40;99.90;;;;;;4947058;29;20048;-74
2022/11/24 06:50:21;;;;;;;11.02;3.08;;;7.50;99.90;;;;;;4947405;29;20051;-77
2022/11/24 06:52:47;;;;;;;7.18;1.88;;;7.50;99.90;;;;;;4945971;29;20036;-75
2022/11/24 06:55:13;;;;;;;10.07;2.50;;;7.50;99.90;;;;;;4946163;29;20028;-77
2022/11/24 06:57:39;;;;;;;14.20;2.95;;;7.60;99.90;;;;;;4957941;29;20066;-74
2022/11/24 07:00:06;;;;;;;14.70;3.33;;;7.60;99.90;;;;;;4953784;28;20031;-74
2022/11/24 07:02:32;;;;;;;8.35;1.77;;;7.70;99.90;;;;;;4962704;28;20214;-76
2022/11/24 07:04:58;;;;;;;8.50;2.08;;;7.70;99.90;;;;;;4965919;28;20316;-76
2022/11/24 07:07:27;;;;;;;10.77;2.00;;;7.80;99.90;;;;;;4983460;28;20057;-75
2022/11/24 07:09:53;;;;;;;7.05;1.42;;;7.80;99.90;;;;;;4982928;28;20324;-76
2022/11/24 07:12:18;;;;;;;9.75;1.73;;;7.80;99.90;;;;;;4982221;28;20034;-76
2022/11/24 07:14:44;;;;;;;6.97;1.50;;;7.80;99.90;;;;;;4981577;28;20511;-77
2022/11/24 07:17:10;;;;;;;10.90;2.15;;;7.90;99.90;;;;;;4952467;29;20054;-77
2022/11/24 07:19:35;;;;;;;11.75;1.75;;;7.90;99.90;;;;;;4945256;29;20336;-75
2022/11/24 07:22:01;;;;;;;10.30;1.60;;;7.90;99.90;;;;;;4962693;29;20090;-76
2022/11/24 07:24:27;;;;;;;9.65;2.13;;;7.90;99.90;;;;;;4964827;28;20351;-76
2022/11/24 07:26:53;;;;;;;9.77;1.80;;;8.00;99.90;;;;;;4981526;28;20041;-75
2022/11/24 07:29:21;;;;;;;9.98;1.77;;;8.00;99.90;;;;;;4981890;28;20022;-74
2022/11/24 07:31:50;;;;;;;9.48;1.85;;;8.00;99.90;;;;;;4981479;28;20246;-76
2022/11/24 07:34:16;;;;;;;;;;;8.20;99.90;;;;;;4982708;28;20042;-75
2022/11/24 07:36:43;;;;;;;10.52;2.42;;;8.20;99.90;;;;;;4981179;28;19906;-75
2022/11/24 07:39:09;;;;;;;9.48;2.60;;;8.20;99.90;;;;;;4964590;28;20041;-73
2022/11/24 07:41:35;;;;;;;5.80;2.00;;;8.10;99.90;;;;;;4981479;28;20058;-73
2022/11/24 07:44:02;;;;;;;10.63;2.05;;;8.20;99.90;;;;;;4981826;28;20342;-75
2022/11/24 07:46:28;;;;;;;11.02;2.47;;;8.20;99.90;;;;;;4981089;28;20018;-75
2022/11/24 07:48:53;;;;;;;7.75;1.75;;;8.30;99.90;;;;;;4982005;28;20084;-75
2022/11/24 07:51:19;;;;;;;7.82;1.70;;;8.30;99.90;;;;;;4972652;28;20039;-75
2022/11/24 07:53:45;;;;;;;11.15;2.10;;;8.30;99.90;;;;;;4964224;28;20026;-75
2022/11/24 07:56:11;;;;;;;10.30;1.67;;;8.30;99.90;;;;;;4981901;28;20019;-75
2022/11/24 07:58:37;;;;;;;9.57;2.40;;;8.30;99.90;;;;;;4970444;28;20074;-75
2022/11/24 08:01:17;;;;;;;11.48;1.88;;;8.20;99.90;;;;;;4964191;28;20041;-74
2022/11/24 08:03:43;;;;;;;7.93;1.55;;;8.10;99.90;;;;;;4980948;28;20110;-74
2022/11/24 08:06:10;;;;;;;8.95;1.50;;;8.10;99.90;;;;;;4964547;28;20243;-73
2022/11/24 08:08:36;;;;;;;7.45;1.83;;;8.00;99.90;;;;;;4980453;28;20050;-75
2022/11/24 08:11:10;;;;;;;15.52;2.70;;;8.10;99.90;;;;;;4965427;28;20035;-76
2022/11/24 08:13:36;;;;;;;9.25;1.98;;;8.10;99.90;;;;;;4960809;28;20061;-75
2022/11/24 08:16:07;;;;;;;9.57;1.80;;;8.10;99.90;;;;;;4973501;28;20089;-73
2022/11/24 08:18:34;;;;;;;9.73;2.53;;;8.10;99.90;;;;;;4984738;28;20031;-72
2022/11/24 08:21:00;;;;;;;9.57;1.60;;;8.10;99.90;;;;;;4985143;28;20105;-74
2022/11/24 08:23:26;;;;;;;7.57;2.08;;;8.10;99.90;;;;;;4984770;28;20058;-75
2022/11/24 08:25:53;;;;;;;6.43;1.38;;;8.10;99.90;;;;;;4984587;28;20026;-74
2022/11/24 08:28:19;;;;;;;6.28;1.50;;;8.10;99.90;;;;;;4985003;28;20045;-77
2022/11/24 08:30:45;;;;;;;6.75;1.23;;;8.20;99.90;;;;;;4984729;28;20062;-72
2022/11/24 08:33:11;;;;;;;9.02;1.30;;;8.20;99.90;;;;;;4968043;28;20031;-75
2022/11/24 08:35:40;;;;;;;6.20;1.23;;;8.30;99.90;;;;;;4984335;28;20090;-73
2022/11/24 08:38:06;;;;;;;;;;;8.40;99.90;;;;;;4968710;28;20029;-73
2022/11/24 08:40:32;;;;;;;13.00;1.40;;;8.40;99.90;;;;;;4984516;28;19906;-75
2022/11/24 08:43:00;;;;;;;7.50;1.35;;;8.50;99.90;;;;;;4985378;28;20027;-75
2022/11/24 08:45:27;;;;;;;4.63;1.10;;;8.50;99.90;;;;;;4984753;28;20027;-73
2022/11/24 08:48:00;;;;;;;5.75;1.20;;;8.50;99.90;;;;;;4984859;28;20026;-76
2022/11/24 08:50:28;;;;;;;5.78;0.93;;;8.40;99.90;;;;;;4984777;28;20026;-74
2022/11/24 08:52:54;;;;;;;7.05;0.98;;;8.50;99.90;;;;;;4984228;28;20513;-74
2022/11/24 08:55:20;;;;;;;8.38;1.05;;;8.60;99.90;;;;;;4963419;28;20387;-75
2022/11/24 08:57:48;;;;;;;3.25;0.60;;;8.50;99.90;;;;;;4981876;28;20027;-73
2022/11/24 09:00:21;;;;;;;2.40;0.70;;;8.50;99.90;;;;;;4967510;28;20081;-75
2022/11/24 09:02:57;;;;;;;2.65;0.60;;;8.50;99.90;;;;;;4965707;28;20123;-75
2022/11/24 09:05:25;;;;;;;3.92;0.68;;;8.50;99.90;;;;;;4948191;29;20065;-75
2022/11/24 09:07:51;;;;;;;4.43;0.73;;;8.50;99.90;;;;;;4952820;29;20035;-75
2022/11/24 09:10:17;;;;;;;3.08;0.57;;;8.50;99.90;;;;;;4975557;28;20038;-75
2022/11/24 09:12:44;;;;;;;4.45;0.77;;;8.50;99.90;;;;;;4984378;28;20258;-76
2022/11/24 09:15:11;;;;;;;2.13;0.50;;;8.60;99.90;;;;;;4984611;28;20212;-74
2022/11/24 09:17:37;;;;;;;3.40;0.60;;;8.60;99.90;;;;;;4983937;28;20041;-74
2022/11/24 09:20:04;;;;;;;3.63;0.40;;;8.70;99.90;;;;;;4967920;28;20034;-75
2022/11/24 09:22:30;;;;;;;4.20;0.55;;;8.80;99.90;;;;;;4985393;28;20058;-73
2022/11/24 09:24:56;;;;;;;2.10;0.30;;;8.90;99.90;;;;;;4983925;28;20305;-74
2022/11/24 09:27:22;;;;;;;2.22;1.25;;;9.00;99.90;;;;;;4984041;28;20033;-75
2022/11/24 09:29:48;;;;;;;2.17;0.40;;;9.00;99.90;;;;;;4983590;28;20108;-74
2022/11/24 09:32:14;;;;;;;2.17;0.55;;;9.10;99.90;;;;;;4982900;28;20049;-76
2022/11/24 09:34:39;;;;;;;1.92;0.43;;;9.20;99.90;;;;;;4983592;28;20031;-76
2022/11/24 09:37:05;;;;;;;2.63;0.50;;;9.20;99.90;;;;;;4984157;28;20459;-75
2022/11/24 09:39:34;;;;;;;3.50;0.47;;;9.10;99.90;;;;;;4983879;28;20030;-75
2022/11/24 09:42:16;;;;;;;2.50;0.40;;;9.00;99.90;;;;;;4966744;28;20049;-75
2022/11/24 09:45:05;;;;;;;1.45;0.47;;;8.90;99.90;;;;;;4983131;28;20446;-73
2022/11/24 09:47:53;;;;;;;1.52;0.40;;;8.90;99.90;;;;;;4966757;28;20027;-76
2022/11/24 09:50:21;;;;;;;2.65;0.45;;;8.80;99.90;;;;;;4966587;28;20053;-75
2022/11/24 09:53:02;;;;;;;2.05;0.40;;;8.90;99.90;;;;;;4966098;28;20315;-75
2022/11/24 09:55:44;;;;;;;4.30;1.15;;;8.90;99.90;;;;;;4984226;28;20035;-73
2022/11/24 09:58:27;;;;;;;1.23;0.32;;;9.00;99.90;;;;;;4984007;28;20027;-73
2022/11/24 10:00:55;;;;;;;1.48;0.45;;;9.00;99.90;;;;;;4984461;28;20046;-75
2022/11/24 10:03:30;;;;;;;0.85;0.20;;;9.10;99.90;;;;;;4985540;28;20078;-74
2022/11/24 10:05:58;;;;;;;2.35;0.45;;;9.20;99.90;;;;;;4984905;28;20031;-73
2022/11/24 10:09:01;;;;;;;2.03;0.40;;;9.30;99.90;;;;;;4985290;28;20046;-74
2022/11/24 10:11:37;;;;;;;0.95;0.30;;;9.30;99.90;;;;;;4984975;28;20117;-74
2022/11/24 10:14:47;;;;;;;0.98;0.30;;;9.40;99.90;;;;;;4984523;28;20090;-75
2022/11/24 10:17:36;;;;;;;1.80;0.30;;;9.50;99.90;;;;;;4964853;29;20025;-76
2022/11/24 10:20:29;;;;;;;1.02;0.20;;;9.60;99.90;;;;;;4965052;29;20039;-74
2022/11/24 10:23:17;;;;;;;0.95;0.20;;;10.00;99.90;;;;;;4964639;29;20149;-74
2022/11/24 10:25:49;;;;;;;1.75;0.30;;;10.20;99.90;;;;;;4972307;29;20095;-74
2022/11/24 10:28:15;;;;;;;2.05;0.40;;;10.20;99.90;;;;;;4973443;29;20035;-73
2022/11/24 10:30:41;;;;;;;2.15;0.30;;;10.30;99.90;;;;;;4964513;29;20042;-75
2022/11/24 10:33:17;;;;;;;1.33;0.38;;;10.20;99.90;;;;;;4964066;29;20334;-75
2022/11/24 10:35:51;;;;;;;1.05;0.20;;;10.20;99.90;;;;;;4963641;29;20082;-74
2022/11/24 10:38:20;;;;;;;2.65;0.50;;;10.10;99.90;;;;;;4963408;28;20043;-73
2022/11/24 10:40:57;;;;;;;1.10;0.25;;;10.00;99.90;;;;;;4963517;29;20070;-73
2022/11/24 10:43:31;;;;;;;1.73;0.50;;;10.10;99.90;;;;;;4964309;29;20039;-77
2022/11/24 10:46:22;;;;;;;1.92;0.45;;;10.30;99.90;;;;;;4963988;29;20050;-75
2022/11/24 10:49:00;;;;;;;1.90;0.30;;;10.50;99.90;;;;;;4963272;29;20153;-75
2022/11/24 10:51:54;;;;;;;1.53;0.33;;;10.80;99.90;;;;;;4947774;29;20043;-74
2022/11/24 10:54:23;;;;;;;1.25;0.20;;;11.10;99.90;;;;;;4964184;29;20050;-75
2022/11/24 10:56:54;;;;;;;1.70;0.43;;;11.50;99.90;;;;;;4967933;28;20026;-74
2022/11/24 10:59:36;;;;;;;1.33;0.40;;;12.00;99.90;;;;;;4965790;28;20022;-74
2022/11/24 11:02:27;;;;;;;2.63;0.40;;;12.30;99.90;;;;;;4982514;28;20058;-76
2022/11/24 11:04:52;;;;;;;2.60;0.40;;;12.30;99.90;;;;;;4982374;28;20050;-78
2022/11/24 11:07:21;;;;;;;3.80;0.35;;;12.30;99.90;;;;;;4982694;28;20082;-73
2022/11/24 11:09:47;;;;;;;1.50;0.30;;;12.00;99.90;;;;;;4981842;28;20094;-75
2022/11/24 11:12:26;;;;;;;1.98;0.20;;;11.40;99.90;;;;;;4982627;28;20256;-77
2022/11/24 11:14:52;;;;;;;1.23;0.30;;;11.20;99.90;;;;;;4982014;28;20038;-76
2022/11/24 11:17:36;;;;;;;1.13;0.30;;;10.90;99.90;;;;;;4982429;28;20054;-73
2022/11/24 11:20:06;;;;;;;2.05;1.05;;;10.80;99.90;;;;;;4982523;28;20348;-75
2022/11/24 11:22:36;;;;;;;1.75;0.40;;;10.80;99.90;;;;;;4965157;28;20049;-78
2022/11/24 11:25:21;;;;;;;1.45;0.30;;;11.00;99.90;;;;;;4982270;28;20053;-76
2022/11/24 11:27:47;;;;;;;1.60;0.40;;;11.80;99.90;;;;;;4982127;28;20078;-74
2022/11/24 11:30:17;;;;;;;1.40;0.35;;;13.20;99.90;;;;;;4965002;28;20336;-76
2022/11/24 11:32:57;;;;;;;2.30;0.30;;;13.90;99.90;;;;;;4964585;28;20147;-76
2022/11/24 11:35:28;;;;;;;1.58;0.30;;;13.30;99.90;;;;;;4965028;28;20031;-73
2022/11/24 11:38:00;;;;;;;2.95;0.45;;;12.80;99.90;;;;;;4964574;28;20050;-74
2022/11/24 11:40:30;;;;;;;4.20;0.50;;;13.40;99.90;;;;;;4982276;28;20033;-75
2022/11/24 11:43:12;;;;;;;2.00;0.40;;;14.00;99.90;;;;;;4981511;28;20027;-73
2022/11/24 11:45:44;;;;;;;1.02;0.30;;;14.00;99.90;;;;;;4981569;28;20034;-74
2022/11/24 11:48:35;;;;;;;2.03;0.57;;;14.00;99.90;;;;;;4981157;28;20073;-76
2022/11/24 11:51:22;;;;;;;1.45;0.40;;;13.70;99.90;;;;;;4965024;28;20035;-76
2022/11/24 11:54:12;;;;;;;2.38;0.40;;;13.30;99.90;;;;;;4981687;28;20026;-75
2022/11/24 11:56:48;;;;;;;3.47;0.30;;;12.80;99.90;;;;;;4977560;28;20038;-73
2022/11/24 11:59:20;;;;;;;2.20;0.50;;;12.20;99.90;;;;;;4945446;29;20054;-75
2022/11/24 12:02:03;;;;;;;2.42;0.60;;;11.80;99.90;;;;;;4962134;29;20098;-75
2022/11/24 12:05:00;;;;;;;3.70;0.60;;;11.60;99.90;;;;;;4939953;29;20038;-75
2022/11/24 12:07:55;;;;;;;2.73;0.80;;;11.40;99.90;;;;;;4962572;29;20214;-74
2022/11/24 12:10:24;;;;;;;4.80;0.93;;;11.50;99.90;;;;;;4962307;29;20034;-76
2022/11/24 12:13:18;;;;;;;2.92;0.93;;;11.80;99.90;;;;;;4962021;29;20098;-76
2022/11/24 12:16:29;;;;;;;6.43;1.15;;;12.00;99.90;;;;;;4961997;29;20043;-76
2022/11/24 12:19:42;;;;;;;3.75;1.00;;;12.10;99.90;;;;;;4961930;29;20028;-75
2022/11/24 12:23:01;;;;;;;2.83;0.70;;;12.50;99.90;;;;;;4943968;29;20089;-78
2022/11/24 12:25:35;;;;;;;3.17;0.75;;;12.90;99.90;;;;;;4865580;29;20052;-76
2022/11/24 12:28:31;;;;;;;3.85;1.08;;;14.00;99.70;;;;;;4959500;29;20432;-76
2022/11/24 12:31:15;;;;;;;3.63;0.73;;;15.20;97.80;;;;;;4934898;29;20081;-76
2022/11/24 12:34:10;;;;;;;4.20;1.00;;;15.50;96.60;;;;;;4934574;29;20055;-75
2022/11/24 12:36:47;;;;;;;3.17;0.80;;;14.50;97.20;;;;;;4933627;29;20039;-76
2022/11/24 12:39:37;;;;;;;3.80;1.20;;;13.80;97.90;;;;;;4926257;29;20201;-75
2022/11/24 12:42:46;;;;;;;4.25;1.02;;;13.50;98.50;;;;;;4957916;29;20042;-74
2022/11/24 12:45:45;;;;;;;2.72;0.82;;;13.20;99.20;;;;;;4943269;29;20119;-75
2022/11/24 12:48:22;;;;;;;6.57;1.45;;;13.20;99.20;;;;;;4905801;29;20040;-75
2022/11/24 12:50:54;;;;;;;4.47;1.10;;;12.90;99.00;;;;;;4941115;29;20055;-75
2022/11/24 12:53:30;;;;;;;5.60;0.95;;;12.80;99.70;;;;;;4925861;29;20098;-76
2022/11/24 12:56:09;;;;;;;6.35;1.05;;;13.00;99.20;;;;;;4959329;29;20086;-78
2022/11/24 12:59:04;;;;;;;4.72;0.80;;;13.40;97.50;;;;;;4961768;29;20125;-75
2022/11/24 13:01:59;;;;;;;4.35;0.82;;;13.70;97.50;;;;;;4948324;28;20229;-77
2022/11/24 13:04:50;;;;;;;6.72;0.98;;;13.40;96.50;;;;;;4951451;28;20371;-76
2022/11/24 13:07:42;;;;;;;5.85;1.00;;;13.20;97.30;;;;;;4925098;29;20246;-74
2022/11/24 13:10:25;;;;;;;6.45;1.00;;;13.50;96.40;;;;;;4881990;29;20056;-75
2022/11/24 13:13:01;;;;;;;4.57;1.10;;;14.10;95.20;;;;;;4902107;29;20166;-75
2022/11/24 13:15:29;;;;;;;3.33;0.80;;;14.20;94.60;;;;;;4914324;29;20040;-75
2022/11/24 13:17:55;;;;;;;5.72;0.98;;;14.20;94.60;;;;;;4908227;29;20036;-76
2022/11/24 13:20:30;;;;;;;4.30;1.08;;;14.80;94.50;;;;;;4924797;29;20326;-76
2022/11/24 13:23:00;;;;;;;4.68;1.00;;;15.40;93.30;;;;;;4924265;29;20318;-76
2022/11/24 13:25:34;;;;;;;5.57;1.10;;;15.60;92.40;;;;;;4909104;29;20044;-76
2022/11/24 13:28:01;;;;;;;5.55;1.27;;;16.00;92.20;;;;;;4924578;29;20545;-77
2022/11/24 13:30:36;;;;;;;5.43;0.80;;;16.00;91.40;;;;;;4924607;29;20039;-76
2022/11/24 13:33:10;;;;;;;4.80;0.90;;;15.90;91.10;;;;;;4924721;29;20435;-73
2022/11/24 13:35:41;;;;;;;6.13;1.27;;;15.00;91.30;;;;;;4924203;29;20031;-73
2022/11/24 13:38:38;;;;;;;2.15;0.63;;;14.40;92.50;;;;;;4911503;29;20059;-72
2022/11/24 13:41:07;;;;;;;5.07;1.02;;;13.60;93.20;;;;;;4889978;29;20322;-74
2022/11/24 13:43:33;;;;;;;3.35;0.70;;;13.30;93.80;;;;;;4901329;29;20062;-74
2022/11/24 13:45:59;;;;;;;3.95;0.88;;;13.30;94.00;;;;;;4964987;29;20089;-74
2022/11/24 13:48:27;;;;;;;3.05;0.60;;;13.10;94.50;;;;;;4964243;29;20031;-74
2022/11/24 13:50:53;;;;;;;5.25;0.70;;;12.80;94.60;;;;;;4963761;29;20046;-75
2022/11/24 13:53:37;;;;;;;3.88;0.90;;;12.80;95.00;;;;;;4964543;29;20085;-73
2022/11/24 13:56:20;;;;;;;4.97;1.00;;;12.80;95.60;;;;;;4964242;29;20224;-74
2022/11/24 13:58:52;;;;;;;5.93;1.70;;;12.80;95.10;;;;;;4964490;29;20039;-76
2022/11/24 14:01:32;;;;;;;5.97;1.25;;;12.80;95.60;;;;;;4964486;28;20019;-75
2022/11/24 14:04:11;;;;;;;5.30;1.45;;;12.70;95.60;;;;;;4976034;28;20073;-77
2022/11/24 14:06:42;;;;;;;7.85;1.33;;;12.50;95.60;;;;;;4984341;28;20308;-75
2022/11/24 14:09:40;;;;;;;5.90;1.20;;;12.40;95.80;;;;;;4963620;28;20066;-75
2022/11/24 14:12:24;;;;;;;4.65;1.00;;;12.20;95.70;;;;;;4965191;28;20039;-75
2022/11/24 14:15:24;;;;;;;5.18;1.15;;;12.30;95.70;;;;;;4965984;28;20360;-75
2022/11/24 14:17:53;;;;;;;4.18;1.17;;;12.70;95.50;;;;;;4965562;28;20054;-74
2022/11/24 14:20:25;;;;;;;4.07;0.80;;;12.70;95.10;;;;;;4966268;28;20027;-75
2022/11/24 14:22:51;;;;;;;5.07;1.27;;;13.00;94.80;;;;;;4982672;28;20038;-75
2022/11/24 14:25:28;;;;;;;5.25;1.13;;;13.00;94.80;;;;;;4966281;28;20304;-75
2022/11/24 14:27:58;;;;;;;5.47;1.10;;;13.30;94.40;;;;;;4965339;28;20034;-75
2022/11/24 14:30:24;;;;;;;5.10;1.17;;;13.30;94.60;;;;;;4978161;28;20086;-75
2022/11/24 14:33:01;;;;;;;4.78;1.23;;;13.50;94.30;;;;;;4982408;28;20019;-77
2022/11/24 14:35:33;;;;;;;4.65;1.40;;;13.60;94.30;;;;;;4948469;28;20022;-75
2022/11/24 14:38:01;;;;;;;5.00;1.77;;;13.40;94.50;;;;;;4937284;29;20026;-75
2022/11/24 14:40:43;;;;;;;;;;;13.80;94.20;;;;;;4931603;29;20031;-75
2022/11/24 14:43:31;;;;;;;7.07;1.38;;;14.10;94.20;;;;;;4946801;29;19906;-76
2022/11/24 14:46:07;;;;;;;4.70;1.02;;;14.10;93.80;;;;;;4931552;29;20058;-77
2022/11/24 14:48:48;;;;;;;6.40;1.20;;;13.70;93.90;;;;;;4962617;29;20027;-77
2022/11/24 14:51:24;;;;;;;4.32;1.25;;;13.40;94.50;;;;;;4931071;29;20063;-75
2022/11/24 14:53:57;;;;;;;5.13;1.15;;;13.10;95.50;;;;;;4930371;29;20047;-76
2022/11/24 14:56:29;;;;;;;6.60;2.60;;;13.00;95.70;;;;;;4933176;28;20086;-76
2022/11/24 14:58:59;;;;;;;6.68;2.15;;;13.20;95.60;;;;;;4982746;28;20494;-77
2022/11/24 15:01:25;;;;;;;5.47;1.90;;;13.10;95.70;;;;;;4982659;28;20249;-75
2022/11/24 15:04:24;;;;;;;12.32;2.63;;;12.90;95.90;;;;;;4949006;28;20034;-75
2022/11/24 15:07:24;;;;;;;6.95;1.63;;;12.70;96.70;;;;;;4965483;28;20058;-77
2022/11/24 15:09:52;;;;;;;7.50;1.90;;;12.40;97.30;;;;;;4918539;28;20045;-77
2022/11/24 15:12:27;;;;;;;7.53;1.58;;;12.30;96.90;;;;;;4982401;28;20066;-76
2022/11/24 15:15:19;;;;;;;7.63;2.25;;;12.20;96.70;;;;;;4981802;28;20047;-77
2022/11/24 15:17:50;;;;;;;6.40;1.58;;;12.00;97.50;;;;;;4949096;28;20023;-76
2022/11/24 15:20:41;;;;;;;6.75;2.05;;;11.70;97.90;;;;;;4982325;28;20058;-76
2022/11/24 15:23:25;;;;;;;5.25;1.83;;;11.50;98.70;;;;;;4964895;28;20023;-75
2022/11/24 15:26:09;;;;;;;6.50;1.63;;;11.30;99.00;;;;;;4975974;28;20352;-73
2022/11/24 15:28:35;;;;;;;7.45;1.98;;;11.20;99.00;;;;;;4968146;28;20101;-76
2022/11/24 15:31:15;;;;;;;8.75;2.30;;;11.00;99.20;;;;;;4966163;28;20039;-73
2022/11/24 15:33:44;;;;;;;7.25;1.80;;;10.90;99.50;;;;;;4992569;28;20033;-76
2022/11/24 15:36:15;;;;;;;7.43;2.35;;;10.70;99.90;;;;;;4959976;28;20019;-73
2022/11/24 15:38:41;;;;;;;7.28;2.50;;;10.40;99.90;;;;;;4974711;28;20054;-76
2022/11/24 15:41:31;;;;;;;6.63;1.80;;;10.30;99.90;;;;;;4985145;28;20049;-76
2022/11/24 15:44:09;;;;;;;6.03;1.50;;;10.20;99.90;;;;;;4945702;28;20268;-76
2022/11/24 15:46:37;;;;;;;8.13;1.50;;;10.00;99.90;;;;;;4964362;28;20031;-75
2022/11/24 15:49:04;;;;;;;5.33;1.27;;;9.90;99.90;;;;;;4965060;28;20037;-75
2022/11/24 15:51:29;;;;;;;8.98;1.58;;;9.80;99.90;;;;;;4981716;28;20110;-74
2022/11/24 15:53:56;;;;;;;5.75;1.35;;;9.60;99.90;;;;;;4981347;28;20063;-74
2022/11/24 15:56:30;;;;;;;7.40;1.50;;;9.50;99.90;;;;;;4980057;28;20101;-76
2022/11/24 15:58:55;;;;;;;7.68;1.70;;;9.40;99.90;;;;;;4961884;29;20039;-76
2022/11/24 16:01:23;;;;;;;8.05;2.35;;;9.40;99.90;;;;;;4945268;29;20115;-75
2022/11/24 16:03:49;;;;;;;6.00;1.40;;;9.40;99.90;;;;;;4961858;29;20047;-75
2022/11/24 16:06:18;;;;;;;7.55;1.30;;;9.30;99.90;;;;;;4945312;29;20339;-76
2022/11/24 16:08:43;;;;;;;8.70;2.05;;;9.30;99.90;;;;;;4977885;28;20094;-75
2022/11/24 16:11:09;;;;;;;6.32;1.55;;;9.30;99.90;;;;;;4981708;28;20055;-74
2022/11/24 16:13:35;;;;;;;5.78;2.20;;;9.20;99.90;;;;;;4981246;28;20131;-75
2022/11/24 16:16:01;;;;;;;8.23;2.88;;;9.00;99.90;;;;;;4965276;28;20094;-76
2022/11/24 16:18:26;;;;;;;9.57;2.97;;;8.80;99.90;;;;;;4964212;28;20045;-76
2022/11/24 16:20:55;;;;;;;7.85;2.58;;;8.70;99.90;;;;;;4963802;28;20421;-79
2022/11/24 16:23:21;;;;;;;13.25;3.97;;;8.60;99.90;;;;;;4981819;28;20067;-75
2022/11/24 16:25:46;;;;;;;11.98;4.75;;;8.50;99.90;;;;;;4964242;28;20174;-75
2022/11/24 16:28:12;;;;;;;11.02;4.22;;;8.30;99.90;;;;;;4961827;28;20050;-74
2022/11/24 16:30:38;;;;;;;12.68;4.35;;;8.20;99.90;;;;;;4946968;29;20209;-74
2022/11/24 16:33:06;;;;;;;13.23;5.22;;;8.10;99.90;;;;;;4962165;29;20031;-76
2022/11/24 16:35:33;;;;;;;15.40;5.70;;;7.90;99.90;;;;;;4963700;28;20217;-74
2022/11/24 16:37:59;;;;;;;9.98;4.15;;;7.90;99.90;;;;;;4978391;28;20105;-74
2022/11/24 16:40:25;;;;;;;9.18;3.22;;;7.80;99.90;;;;;;4985181;28;20336;-75
2022/11/24 16:42:51;;;;;;;11.80;3.90;;;7.80;99.90;;;;;;4984480;28;20061;-76
2022/11/24 16:45:17;;;;;;;8.77;3.75;;;7.70;99.90;;;;;;4985146;28;20033;-74
2022/11/24 16:47:43;;;;;;;37.95;20.88;;;7.60;99.90;;;;;;4984661;28;20031;-76
2022/11/24 16:50:10;;;;;;;12.57;6.03;;;7.50;99.90;;;;;;4984991;28;20018;-75
2022/11/24 16:52:37;;;;;;;12.85;4.28;;;7.50;99.90;;;;;;4984505;28;20126;-76
2022/11/24 16:55:04;;;;;;;12.25;4.22;;;7.40;99.90;;;;;;4985093;28;20054;-76
2022/11/24 16:57:30;;;;;;;14.47;5.83;;;7.30;99.90;;;;;;4974331;28;20039;-75
2022/11/24 16:59:59;;;;;;;12.95;4.97;;;7.20;99.90;;;;;;4962370;28;20045;-76
2022/11/24 17:02:24;;;;;;;15.75;6.03;;;7.20;99.90;;;;;;4961147;28;20113;-77
2022/11/24 17:04:51;;;;;;;16.60;6.13;;;7.10;99.90;;;;;;4984066;28;20031;-76
2022/11/24 17:07:20;;;;;;;13.07;5.13;;;7.10;99.90;;;;;;4948470;29;20197;-75
2022/11/24 17:10:10;;;;;;;16.75;5.22;;;6.90;99.90;;;;;;4970512;28;20058;-77
2022/11/24 17:12:42;;;;;;;13.30;4.93;;;6.90;99.90;;;;;;4983904;28;20105;-74
2022/11/24 17:15:09;;;;;;;14.73;5.78;;;6.80;99.90;;;;;;4962724;28;20047;-76
2022/11/24 17:17:45;;;;;;;17.17;5.15;;;6.70;99.90;;;;;;4950691;28;20038;-76
2022/11/24 17:20:16;;;;;;;15.93;6.18;;;6.70;99.90;;;;;;4968143;28;20042;-74
2022/11/24 17:23:10;;;;;;;16.17;5.68;;;6.70;99.90;;;;;;4984114;28;20174;-75
2022/11/24 17:25:39;;;;;;;11.48;6.05;;;6.60;99.90;;;;;;4966267;28;20066;-75
2022/11/24 17:28:26;;;;;;;15.93;6.70;;;6.60;99.90;;;;;;4984046;28;20410;-74
2022/11/24 17:31:48;;;;;;;11.15;6.22;;;6.50;99.90;;;;;;4983568;28;20061;-74
2022/11/24 17:34:41;;;;;;;16.70;7.40;;;6.50;99.90;;;;;;4983747;28;20030;-74
2022/11/24 17:37:46;;;;;;;13.20;6.53;;;6.50;99.90;;;;;;4886861;29;20104;-76
2022/11/24 17:40:33;;;;;;;12.57;6.32;;;6.50;99.90;;;;;;4882949;29;20033;-75
2022/11/24 17:43:01;;;;;;;14.20;6.40;;;6.40;99.90;;;;;;4886938;29;20330;-77
2022/11/24 17:45:29;;;;;;;16.88;7.05;;;6.30;99.90;;;;;;4871071;29;20230;-73
2022/11/24 17:48:00;;;;;;;14.20;6.97;;;6.30;99.90;;;;;;4886360;29;20032;-74
2022/11/24 17:51:22;;;;;;;13.05;6.82;;;6.30;99.90;;;;;;4886776;29;20137;-73
2022/11/24 17:53:51;;;;;;;19.27;9.10;;;6.30;99.90;;;;;;4886100;29;20048;-73
2022/11/24 17:56:33;;;;;;;19.58;9.63;;;6.30;99.90;;;;;;4886802;29;20365;-73
2022/11/24 17:59:26;;;;;;;19.10;10.18;;;6.30;99.90;;;;;;4886390;29;20077;-73
2022/11/24 18:01:57;;;;;;;19.75;10.38;;;6.20;99.90;;;;;;4886030;29;20056;-72
2022/11/24 18:04:26;;;;;;;20.52;9.02;;;6.10;99.90;;;;;;4870537;29;20053;-78
2022/11/24 18:06:51;;;;;;;16.08;8.13;;;6.00;99.90;;;;;;4882035;29;20041;-76
2022/11/24 18:09:17;;;;;;;16.63;7.95;;;6.00;99.90;;;;;;4886131;29;20037;-75
2022/11/24 18:11:43;;;;;;;13.30;5.85;;;6.00;99.90;;;;;;4871528;29;20208;-75
2022/11/24 18:14:11;;;;;;;18.45;10.43;;;6.00;99.90;;;;;;4902143;28;20037;-75
2022/11/24 18:16:37;;;;;;;14.95;6.25;;;6.00;99.90;;;;;;4983536;28;20014;-76
2022/11/24 18:19:04;;;;;;;14.48;6.05;;;6.00;99.90;;;;;;4983649;28;20054;-75
2022/11/24 18:21:33;;;;;;;15.30;7.15;;;6.00;99.90;;;;;;4967014;28;20042;-75
2022/11/24 18:23:58;;;;;;;19.73;9.23;;;5.90;99.90;;;;;;4965152;28;20106;-75
2022/11/24 18:26:24;;;;;;;17.40;8.10;;;5.80;99.90;;;;;;4983745;28;20042;-76
2022/11/24 18:28:53;;;;;;;15.85;8.27;;;5.80;99.90;;;;;;4966003;28;20033;-75
2022/11/24 18:31:29;;;;;;;21.38;8.90;;;5.80;99.90;;;;;;4950763;28;20043;-76
2022/11/24 18:33:58;;;;;;;14.88;7.80;;;5.70;99.90;;;;;;4949642;28;20046;-77
2022/11/24 18:36:24;;;;;;;18.15;8.63;;;5.70;99.90;;;;;;4966275;28;20022;-77
2022/11/24 18:38:50;;;;;;;20.58;8.30;;;5.70;99.90;;;;;;4949552;28;20039;-77
2022/11/24 18:41:18;;;;;;;14.50;6.80;;;5.60;99.90;;;;;;4983243;28;20033;-78
2022/11/24 18:51:25;;;;;;;16.67;6.13;;;5.60;99.90;;;;;;4941894;29;20071;-75
2022/11/24 18:54:47;;;;;;;22.73;8.10;;;5.60;99.90;;;;;;4922898;29;20030;-76
2022/11/24 19:04:44;;;;;;;26.40;11.55;;;5.50;99.90;;;;;;4922279;29;20078;-75
2022/11/24 19:07:10;;;;;;;24.23;10.73;;;5.40;99.90;;;;;;4906360;29;20096;-74
2022/11/24 19:09:36;;;;;;;38.45;16.25;;;5.40;99.90;;;;;;4938776;29;20028;-74
2022/11/24 19:12:05;;;;;;;31.70;13.63;;;5.30;99.90;;;;;;4935732;29;20054;-74
2022/11/24 19:14:31;;;;;;;26.80;12.23;;;5.30;99.90;;;;;;4922658;29;20051;-74
2022/11/24 19:17:00;;;;;;;24.90;12.65;;;5.30;99.90;;;;;;4939404;29;20064;-75
2022/11/24 19:19:27;;;;;;;20.17;9.52;;;5.20;99.90;;;;;;4941693;29;20056;-76
2022/11/24 19:21:53;;;;;;;20.05;10.57;;;5.20;99.90;;;;;;4941791;29;20124;-75
2022/11/24 19:24:19;;;;;;;20.90;10.80;;;5.20;99.90;;;;;;4947902;29;20049;-75
2022/11/24 19:26:45;;;;;;;25.65;11.30;;;5.10;99.90;;;;;;4945917;29;20046;-73
2022/11/24 19:29:11;;;;;;;24.20;10.45;;;5.00;99.90;;;;;;4956648;29;20254;-75
2022/11/24 19:31:38;;;;;;;25.23;11.38;;;5.00;99.90;;;;;;4945446;29;20038;-76
2022/11/24 19:34:04;;;;;;;19.58;9.18;;;5.00;99.90;;;;;;4961676;29;20023;-76
2022/11/24 19:36:31;;;;;;;15.60;8.27;;;5.00;99.90;;;;;;4962587;28;20073;-76
2022/11/24 19:38:57;;;;;;;21.23;8.60;;;5.00;99.90;;;;;;4962397;28;20043;-76